createdAt,value
2019-06-01T00:03:31.251Z,14.09
2019-06-01T00:14:25.650Z,13.56
2019-06-01T00:25:17.654Z,14.41
2019-06-01T00:36:21.271Z,14.56
2019-06-01T00:47:04.262Z,14.02
2019-06-01T00:58:07.610Z,14.47
2019-06-01T01:09:05.872Z,14.61
2019-06-01T01:20:02.154Z,14.59
2019-06-01T01:31:12.518Z,14.27
2019-06-01T01:41:59.568Z,14.07
2019-06-01T01:52:54.704Z,13.87
2019-06-01T02:03:57.515Z,13.70
2019-06-01T02:14:53.708Z,13.99
2019-06-01T02:25:52.922Z,14.09
2019-06-01T02:36:54.343Z,14.31
2019-06-01T02:47:57.340Z,14.27
2019-06-01T02:59:02.286Z,14.17
2019-06-01T03:10:00.864Z,14.09
2019-06-01T03:20:53.676Z,13.61
2019-06-01T03:31:51.530Z,13.89
2019-06-01T03:42:45.859Z,13.50
2019-06-01T03:53:38.830Z,13.19
2019-06-01T04:04:31.073Z,13.44
2019-06-01T04:15:26.420Z,13.38
2019-06-01T04:26:23.930Z,13.50
2019-06-01T04:37:23.351Z,13.68
2019-06-01T04:48:21.695Z,14.01
2019-06-01T04:59:19.373Z,14.35
2019-06-01T05:10:17.432Z,14.38
2019-06-01T05:21:10.926Z,14.83
2019-06-01T05:32:08.548Z,15.33
2019-06-01T05:43:11.066Z,15.83
2019-06-01T05:54:10.457Z,16.65
2019-06-01T06:05:10.488Z,17.47
2019-06-01T06:15:59.132Z,17.87
2019-06-01T06:26:57.763Z,18.27
2019-06-01T06:37:59.245Z,18.32
2019-06-01T06:48:58.209Z,18.39
2019-06-01T06:59:58.482Z,19.09
2019-06-01T07:11:03.353Z,19.78
2019-06-01T07:22:00.268Z,20.09
2019-06-01T07:33:05.031Z,20.75
2019-06-01T07:44:04.932Z,21.30
2019-06-01T07:54:57.454Z,21.61
2019-06-01T08:05:53.218Z,22.08
2019-06-01T08:16:55.545Z,22.37
2019-06-01T08:27:52.878Z,22.71
2019-06-01T08:38:48.205Z,23.17
2019-06-01T08:49:47.819Z,23.42
2019-06-01T09:00:45.919Z,23.78
2019-06-01T09:11:40.774Z,24.38
2019-06-01T09:22:38.850Z,24.00
2019-06-01T09:33:37.222Z,23.90
2019-06-01T09:44:35.309Z,24.44
2019-06-01T09:55:32.711Z,24.38
2019-06-01T10:06:36.650Z,23.48
2019-06-01T10:17:31.276Z,23.37
2019-06-01T10:28:35.627Z,24.15
2019-06-01T10:39:37.699Z,23.74
2019-06-01T10:50:34.852Z,24.20
2019-06-01T11:01:36.406Z,24.07
2019-06-01T11:12:34.944Z,24.82
2019-06-01T11:23:35.529Z,24.66
2019-06-01T11:34:36.633Z,25.27
2019-06-01T11:45:34.878Z,24.73
2019-06-01T11:56:39.184Z,26.23
2019-06-01T12:07:39.907Z,25.89
2019-06-01T12:18:40.634Z,25.94
2019-06-01T12:29:48.247Z,27.35
2019-06-01T12:40:54.977Z,29.00
2019-06-01T12:51:49.798Z,26.08
2019-06-01T13:02:59.296Z,25.94
2019-06-01T13:13:54.486Z,29.11
2019-06-01T13:25:01.317Z,30.44
2019-06-01T13:35:57.886Z,26.97
2019-06-01T13:46:51.432Z,28.54
2019-06-01T13:57:44.421Z,27.58
2019-06-01T14:08:37.431Z,26.18
2019-06-01T14:19:30.455Z,27.97
2019-06-01T14:30:33.541Z,28.91
2019-06-01T14:41:40.338Z,29.60
2019-06-01T14:52:29.422Z,27.70
2019-06-01T15:03:29.339Z,26.05
2019-06-01T15:45:43.858Z,24.60
2019-06-01T16:07:01.499Z,24.48
2019-06-01T16:17:38.880Z,24.93
2019-06-01T16:28:13.427Z,24.90
2019-06-01T16:39:14.608Z,24.78
2019-06-01T16:50:17.061Z,24.27
2019-06-01T17:01:20.256Z,24.23
2019-06-01T17:12:14.282Z,23.50
2019-06-01T17:23:25.819Z,23.33
2019-06-01T17:34:20.245Z,23.20
2019-06-01T17:45:19.740Z,22.49
2019-06-01T17:56:19.864Z,21.91
2019-06-01T18:07:19.310Z,21.31
2019-06-01T18:18:12.861Z,21.21
2019-06-01T18:29:12.744Z,21.11
2019-06-01T18:40:09.876Z,20.76
2019-06-01T18:51:12.355Z,20.57
2019-06-01T19:02:15.772Z,20.15
2019-06-01T19:13:10.147Z,20.16
2019-06-01T19:24:06.855Z,19.79
2019-06-01T19:35:07.477Z,19.51
2019-06-01T19:46:07.657Z,19.42
2019-06-01T19:57:02.428Z,19.27
2019-06-01T20:07:58.536Z,19.14
2019-06-01T20:18:55.311Z,18.94
2019-06-01T20:29:49.971Z,18.84
2019-06-01T20:40:50.923Z,18.84
2019-06-01T20:51:50.281Z,18.87
2019-06-01T21:02:47.376Z,18.67
2019-06-01T21:13:42.640Z,18.83
2019-06-01T21:24:39.397Z,18.59
2019-06-01T21:35:40.969Z,18.64
2019-06-01T21:46:38.189Z,18.95
2019-06-01T21:57:36.777Z,18.59
2019-06-01T22:08:34.411Z,18.37
2019-06-01T22:19:36.634Z,18.27
2019-06-01T22:30:35.493Z,18.06
2019-06-01T22:41:39.486Z,17.95
2019-06-01T22:52:35.074Z,17.60
2019-06-01T23:03:39.372Z,17.69
2019-06-01T23:14:39.494Z,17.58
2019-06-01T23:25:40.858Z,17.54
2019-06-01T23:36:41.231Z,17.55
2019-06-01T23:47:41.508Z,17.33
2019-06-01T23:58:39.911Z,17.29
